createdAt,value
2018-02-15T00:03:37.000Z,30.327
2018-02-15T00:13:38.000Z,30.376
2018-02-15T00:23:37.000Z,30.286
2018-02-15T00:33:37.000Z,30.412
2018-02-15T00:43:37.000Z,30.429
2018-02-15T00:53:37.000Z,30.316
2018-02-15T01:03:37.000Z,30.344
2018-02-15T01:13:37.000Z,30.416
2018-02-15T01:23:37.000Z,30.304
2018-02-15T01:33:37.000Z,30.539
2018-02-15T01:43:37.000Z,30.395
2018-02-15T01:53:37.000Z,30.402
2018-02-15T02:03:37.000Z,30.474
2018-02-15T02:13:38.000Z,30.525
2018-02-15T02:23:38.000Z,30.435
2018-02-15T02:33:37.000Z,30.518
2018-02-15T02:43:37.000Z,30.341
2018-02-15T02:53:37.000Z,30.338
2018-02-15T03:03:37.000Z,30.412
2018-02-15T03:13:37.000Z,30.279
2018-02-15T03:23:37.000Z,30.274
2018-02-15T03:33:37.000Z,30.25
2018-02-15T03:43:37.000Z,30.345
2018-02-15T03:53:37.000Z,30.31
2018-02-15T04:03:37.000Z,30.103
2018-02-15T04:13:37.000Z,30.111
2018-02-15T04:23:37.000Z,30.129
2018-02-15T04:33:37.000Z,30.074
2018-02-15T04:43:37.000Z,30.178
2018-02-15T04:53:37.000Z,30.045
2018-02-15T05:03:37.000Z,29.847
2018-02-15T05:13:37.000Z,29.747
2018-02-15T05:23:37.000Z,29.852
2018-02-15T05:33:37.000Z,29.633
2018-02-15T05:43:37.000Z,29.814
2018-02-15T05:53:37.000Z,29.489
2018-02-15T06:03:37.000Z,29.281
2018-02-15T06:13:37.000Z,29.175
2018-02-15T06:23:37.000Z,28.824
2018-02-15T06:33:37.000Z,28.765
2018-02-15T06:43:38.000Z,28.536
2018-02-15T06:53:37.000Z,28.546
2018-02-15T07:03:37.000Z,28.353
2018-02-15T07:13:37.000Z,28.461
2018-02-15T07:23:37.000Z,28.441
2018-02-15T07:33:38.000Z,28.771
2018-02-15T07:43:38.000Z,28.839
2018-02-15T07:53:38.000Z,28.527
2018-02-15T08:03:38.000Z,28.275
2018-02-15T08:13:38.000Z,28.145
2018-02-15T08:23:38.000Z,27.95
2018-02-15T08:33:38.000Z,27.841
2018-02-15T08:43:38.000Z,28.025
2018-02-15T08:53:38.000Z,28.04
2018-02-15T09:03:38.000Z,28.083
2018-02-15T09:13:38.000Z,27.573
2018-02-15T09:23:38.000Z,27.588
2018-02-15T09:33:38.000Z,26.99
2018-02-15T09:43:39.000Z,26.935
2018-02-15T09:53:38.000Z,26.683
2018-02-15T10:03:38.000Z,26.617
2018-02-15T10:13:38.000Z,26.542
2018-02-15T10:23:38.000Z,26.412
2018-02-15T10:33:38.000Z,26.129
2018-02-15T10:43:38.000Z,25.903
2018-02-15T10:53:38.000Z,25.957
2018-02-15T11:03:38.000Z,25.74
2018-02-15T11:13:38.000Z,25.698
2018-02-15T11:23:38.000Z,25.623
2018-02-15T11:33:38.000Z,25.708
2018-02-15T11:43:38.000Z,25.588
2018-02-15T11:53:38.000Z,25.666
2018-02-15T12:03:38.000Z,25.756
2018-02-15T12:13:38.000Z,25.735
2018-02-15T12:23:38.000Z,25.901
2018-02-15T12:33:38.000Z,25.748
2018-02-15T12:43:38.000Z,25.891
2018-02-15T12:53:38.000Z,25.773
2018-02-15T13:03:38.000Z,25.743
2018-02-15T13:13:38.000Z,25.659
2018-02-15T13:23:38.000Z,25.911
2018-02-15T13:33:38.000Z,25.836
2018-02-15T13:43:38.000Z,25.826
2018-02-15T13:53:38.000Z,25.88
2018-02-15T14:03:38.000Z,25.979
2018-02-15T14:13:38.000Z,25.827
2018-02-15T14:23:38.000Z,25.697
2018-02-15T14:33:38.000Z,25.708
2018-02-15T14:43:38.000Z,25.623
2018-02-15T14:53:39.000Z,25.579
2018-02-15T15:03:38.000Z,25.656
2018-02-15T15:13:38.000Z,25.603
2018-02-15T15:23:38.000Z,25.582
2018-02-15T15:33:38.000Z,25.648
2018-02-15T15:43:38.000Z,25.606
2018-02-15T15:53:39.000Z,26.142
2018-02-15T16:03:39.000Z,26.201
2018-02-15T16:13:39.000Z,27.719
2018-02-15T16:23:39.000Z,27.439
2018-02-15T16:33:39.000Z,27.976
2018-02-15T16:43:39.000Z,28.824
2018-02-15T16:53:39.000Z,29.176
2018-02-15T17:03:39.000Z,29.744
2018-02-15T17:13:39.000Z,29.858
2018-02-15T17:23:39.000Z,29.823
2018-02-15T17:33:39.000Z,28.34
2018-02-15T17:43:39.000Z,28.219
2018-02-15T17:53:39.000Z,29.07
2018-02-15T18:03:40.000Z,31.582
2018-02-15T18:13:39.000Z,29.725
2018-02-15T18:23:39.000Z,30.062
2018-02-15T18:33:39.000Z,31.01
2018-02-15T18:43:39.000Z,29.672
2018-02-15T18:53:39.000Z,29.848
2018-02-15T19:03:39.000Z,29.334
2018-02-15T19:13:39.000Z,29.248
2018-02-15T19:23:40.000Z,29.181
2018-02-15T19:33:39.000Z,29.764
2018-02-15T19:43:39.000Z,29.455
2018-02-15T19:53:39.000Z,29.185
2018-02-15T20:03:41.000Z,29
2018-02-15T20:13:39.000Z,29.436
2018-02-15T20:23:39.000Z,28.829
2018-02-15T20:33:39.000Z,29.036
2018-02-15T20:43:39.000Z,28.992
2018-02-15T20:53:41.000Z,28.909
2018-02-15T21:03:39.000Z,28.704
2018-02-15T21:13:39.000Z,28.517
2018-02-15T21:23:43.000Z,28.441
2018-02-15T21:33:41.000Z,29.209
2018-02-15T21:43:39.000Z,29.099
2018-02-15T21:53:39.000Z,28.896
2018-02-15T22:03:39.000Z,28.969
2018-02-15T22:13:41.000Z,28.718
2018-02-15T22:23:39.000Z,28.858
2018-02-15T22:33:40.000Z,29.135
2018-02-15T22:43:39.000Z,28.717
2018-02-15T22:53:41.000Z,28.843
2018-02-15T23:03:40.000Z,28.98
2018-02-15T23:13:40.000Z,28.761
2018-02-15T23:23:39.000Z,28.812
2018-02-15T23:33:40.000Z,29.014
2018-02-15T23:43:41.000Z,29.077
2018-02-15T23:53:39.000Z,29.019
